Time;durP1;ratioP1;P1;durP2;ratioP2;P2;SDS_P1;SDS_P2;PMS_P1;PMS_P2;Temp;Humidity;BMP_temperature;BMP_pressure;BME280_temperature;BME280_humidity;BME280_pressure;Samples;Min_cycle;Max_cycle;Signal;HPM_P1;HPM_P2
2021/03/26 00:00:14;;;;;;;87.28;52.13;;;153.60;1894.40;;;;;;5013897;28;20030;-73
2021/03/26 00:02:40;;;;;;;81.40;47.22;;;153.80;1894.40;;;;;;5019932;28;20034;-71
2021/03/26 00:05:08;;;;;;;76.93;44.53;;;153.80;1868.80;;;;;;5010519;28;20558;-71
2021/03/26 00:07:34;;;;;;;88.85;53.15;;;153.70;1868.80;;;;;;5014142;28;20033;-71
2021/03/26 00:10:00;;;;;;;70.80;44.25;;;153.80;1843.20;;;;;;5013874;28;20030;-71
2021/03/26 00:12:27;;;;;;;71.97;44.45;;;153.80;1868.80;;;;;;5013867;28;20030;-71
2021/03/26 00:14:53;;;;;;;69.68;43.08;;;154.00;2176.00;;;;;;5013886;28;20033;-72
2021/03/26 00:17:19;;;;;;;67.50;40.55;;;;;;;;;;5012768;28;20050;-72
2021/03/26 00:19:45;;;;;;;79.25;45.55;;;153.90;1792.00;;;;;;5013986;28;20022;-70
2021/03/26 00:22:10;;;;;;;70.32;40.35;;;153.70;1843.20;;;;;;5013700;28;20014;-70
2021/03/26 00:24:36;;;;;;;68.10;40.22;;;153.60;1843.20;;;;;;5013833;28;20482;-70
2021/03/26 00:27:02;;;;;;;63.00;37.35;;;153.70;1843.20;;;;;;5047618;23;20054;-71
2021/03/26 00:29:28;;;;;;;67.65;40.60;;;128.90;1868.80;;;;;;4977101;28;20366;-72
2021/03/26 00:31:54;;;;;;;69.35;39.67;;;;;;;;;;4993995;28;20029;-72
2021/03/26 00:34:20;;;;;;;60.53;37.13;;;128.70;1894.40;;;;;;4993880;28;20073;-70
2021/03/26 00:36:46;;;;;;;57.72;35.80;;;128.80;1868.80;;;;;;4994187;28;20042;-72
2021/03/26 00:39:11;;;;;;;58.58;36.53;;;128.90;1843.20;;;;;;4993963;28;20030;-70
2021/03/26 00:41:37;;;;;;;71.05;40.30;;;128.80;1868.80;;;;;;4993942;28;20088;-71
2021/03/26 00:44:04;;;;;;;69.70;39.35;;;128.90;1843.20;;;;;;4976659;28;20096;-71
2021/03/26 00:46:29;;;;;;;82.13;47.03;;;128.90;1843.20;;;;;;4993542;28;20117;-72
2021/03/26 00:48:55;;;;;;;64.22;35.50;;;128.90;1843.20;;;;;;4993983;28;20113;-71
2021/03/26 00:51:21;;;;;;;51.03;32.22;;;128.90;1843.20;;;;;;4993982;28;20030;-71
2021/03/26 00:53:46;;;;;;;48.22;30.08;;;128.90;1843.20;;;;;;4993717;28;20022;-71
2021/03/26 00:56:12;;;;;;;57.45;34.28;;;128.90;1843.20;;;;;;4993502;28;20038;-71
2021/03/26 00:58:38;;;;;;;57.03;36.03;;;128.90;1843.20;;;;;;4994040;28;20018;-70
2021/03/26 01:01:05;;;;;;;50.53;32.15;;;128.90;1843.20;;;;;;4993680;28;20389;-72
2021/03/26 01:03:31;;;;;;;65.35;36.15;;;128.90;1843.20;;;;;;4993605;28;20026;-71
2021/03/26 01:06:01;;;;;;;53.75;32.60;;;128.90;1843.20;;;;;;4993669;28;20030;-71
2021/03/26 01:08:28;;;;;;;53.50;33.15;;;153.60;1817.60;;;;;;4993604;28;20105;-73
2021/03/26 01:11:04;;;;;;;55.00;34.13;;;128.90;1843.20;;;;;;4976218;28;20030;-73
2021/03/26 01:13:30;;;;;;;56.60;35.75;;;128.80;1843.20;;;;;;4975917;28;20076;-74
2021/03/26 01:15:56;;;;;;;65.68;37.58;;;128.80;1843.20;;;;;;4975925;28;20058;-74
2021/03/26 01:18:27;;;;;;;59.03;36.53;;;128.60;2099.20;;;;;;4975912;28;20058;-74
2021/03/26 01:20:55;;;;;;;84.38;42.90;;;128.70;1843.20;;;;;;4993580;28;20022;-72
2021/03/26 01:23:20;;;;;;;61.67;34.65;;;128.70;1843.20;;;;;;4993634;28;20026;-72
2021/03/26 01:25:47;;;;;;;67.07;35.63;;;128.80;1843.20;;;;;;4993081;28;20397;-71
2021/03/26 01:28:19;;;;;;;63.03;33.90;;;128.80;1843.20;;;;;;4993509;28;20484;-71
2021/03/26 01:30:44;;;;;;;;;;;128.80;1843.20;;;;;;4993652;28;20489;-71
2021/03/26 01:33:10;;;;;;;90.68;43.03;;;128.60;1843.20;;;;;;4993340;28;19905;-72
2021/03/26 01:35:38;;;;;;;47.17;29.80;;;128.70;1843.20;;;;;;4993453;28;20049;-71
2021/03/26 01:38:04;;;;;;;44.35;28.25;;;128.70;1817.60;;;;;;4993269;28;20018;-71
2021/03/26 01:40:37;;;;;;;48.60;31.88;;;128.60;1843.20;;;;;;4993156;28;20031;-71
2021/03/26 01:43:09;;;;;;;52.25;31.50;;;128.70;1843.20;;;;;;4993040;28;20089;-72
2021/03/26 01:45:35;;;;;;;51.20;31.48;;;128.60;1843.20;;;;;;4992715;28;20034;-72
2021/03/26 01:48:02;;;;;;;51.80;30.95;;;128.60;1843.20;;;;;;4993038;28;20101;-72
2021/03/26 01:50:31;;;;;;;46.67;28.83;;;128.60;1843.20;;;;;;4993403;28;20026;-72
2021/03/26 01:52:57;;;;;;;47.70;27.67;;;128.70;1817.60;;;;;;4993239;28;20397;-72
2021/03/26 01:55:38;;;;;;;45.63;27.05;;;128.60;1843.20;;;;;;4993010;28;20485;-72
2021/03/26 01:58:04;;;;;;;58.80;32.25;;;128.70;1817.60;;;;;;4993047;28;20038;-72
2021/03/26 02:00:39;;;;;;;72.68;40.15;;;128.60;1817.60;;;;;;4993035;28;20105;-72
2021/03/26 02:03:14;;;;;;;78.03;39.53;;;128.70;1792.00;;;;;;4993011;28;20037;-72
2021/03/26 02:05:40;;;;;;;60.85;34.17;;;128.70;1792.00;;;;;;4992904;28;20378;-71
2021/03/26 02:08:06;;;;;;;60.28;32.05;;;128.80;1792.00;;;;;;4993088;28;20073;-71
2021/03/26 02:10:33;;;;;;;51.70;29.70;;;;;;;;;;4992881;28;20413;-71
2021/03/26 02:13:02;;;;;;;40.75;26.90;;;;;;;;;;4993184;28;20041;-73
2021/03/26 02:15:33;;;;;;;41.40;26.25;;;;;;;;;;4992868;28;20105;-72
2021/03/26 02:18:00;;;;;;;38.13;24.83;;;;;;;;;;4992875;28;20131;-72
2021/03/26 02:20:35;;;;;;;46.35;27.23;;;;;;;;;;4992774;28;20023;-72
2021/03/26 02:23:19;;;;;;;38.08;23.73;;;;;;;;;;4992799;28;20031;-72
2021/03/26 02:25:45;;;;;;;34.08;23.65;;;;;;;;;;4992462;28;20563;-72
2021/03/26 02:28:11;;;;;;;39.40;24.50;;;;;;;;;;4992757;28;20042;-72
2021/03/26 02:30:43;;;;;;;38.35;24.80;;;128.20;1843.20;;;;;;4992750;28;20033;-72
2021/03/26 02:33:09;;;;;;;37.30;23.52;;;128.10;1843.20;;;;;;4992694;28;20018;-72
2021/03/26 02:35:38;;;;;;;43.00;25.40;;;128.10;1843.20;;;;;;4992820;28;20033;-72
2021/03/26 02:38:24;;;;;;;44.00;25.63;;;128.10;1868.80;;;;;;4992649;28;20481;-72
2021/03/26 02:40:53;;;;;;;37.30;24.20;;;128.00;1868.80;;;;;;4992623;28;20109;-72
2021/03/26 02:43:25;;;;;;;53.95;30.45;;;128.00;1868.80;;;;;;4992520;28;20045;-72
2021/03/26 02:46:14;;;;;;;40.58;24.02;;;128.10;1868.80;;;;;;4992666;28;20034;-73
2021/03/26 02:48:55;;;;;;;38.33;23.20;;;128.00;1868.80;;;;;;4992557;28;20080;-73
2021/03/26 02:51:35;;;;;;;36.90;23.40;;;128.10;2252.80;;;;;;4977423;28;20432;-74
2021/03/26 02:54:21;;;;;;;39.20;24.15;;;128.00;1868.80;;;;;;4980711;28;20030;-74
2021/03/26 02:56:54;;;;;;;43.55;25.08;;;128.20;2227.20;;;;;;4993488;28;20061;-75
2021/03/26 02:59:33;;;;;;;34.97;21.90;;;128.10;1868.80;;;;;;4996055;28;20034;-73
2021/03/26 03:02:00;;;;;;;41.10;23.67;;;;;;;;;;4996035;28;20534;-74
2021/03/26 03:04:33;;;;;;;35.45;22.30;;;128.20;2252.80;;;;;;4996062;28;20026;-74
2021/03/26 03:07:14;;;;;;;35.88;22.13;;;103.30;1894.40;;;;;;4995978;28;20038;-73
2021/03/26 03:09:44;;;;;;;34.55;22.48;;;128.00;1894.40;;;;;;4995867;28;20030;-73
2021/03/26 03:12:21;;;;;;;32.92;20.50;;;103.30;1894.40;;;;;;4995802;28;20157;-73
2021/03/26 03:14:54;;;;;;;35.10;22.25;;;;;;;;;;4996001;28;20019;-74
2021/03/26 03:17:24;;;;;;;34.78;22.65;;;;;;;;;;4995541;28;20396;-73
2021/03/26 03:19:58;;;;;;;34.17;20.85;;;;;;;;;;4995603;28;20074;-73
2021/03/26 03:22:24;;;;;;;36.08;22.05;;;;;;;;;;4978069;28;20026;-73
2021/03/26 03:24:50;;;;;;;32.40;22.08;;;;;;;;;;4995660;28;20514;-74
2021/03/26 03:27:22;;;;;;;31.15;20.95;;;;;;;;;;4995187;28;20413;-71
2021/03/26 03:30:06;;;;;;;35.08;22.20;;;;;;;;;;4995571;28;20033;-71
2021/03/26 03:32:38;;;;;;;35.70;22.38;;;;;;;;;;4995162;28;20026;-71
2021/03/26 03:35:10;;;;;;;37.03;22.30;;;;;;;;;;4995541;28;20026;-71
2021/03/26 03:38:00;;;;;;;39.67;22.52;;;;;;;;;;4995398;28;20548;-71
2021/03/26 03:40:28;;;;;;;37.63;22.38;;;;;;;;;;4988921;28;20497;-71
2021/03/26 03:43:09;;;;;;;37.70;22.02;;;;;;;;;;4995048;28;20061;-70
2021/03/26 03:45:50;;;;;;;32.47;21.33;;;;;;;;;;4995268;28;20042;-73
2021/03/26 03:48:33;;;;;;;31.50;18.80;;;;;;;;;;4995090;28;20054;-72
2021/03/26 03:51:05;;;;;;;43.70;25.70;;;;;;;;;;4995263;28;20264;-70
2021/03/26 03:53:31;;;;;;;50.22;28.13;;;;;;;;;;4994788;28;20023;-70
2021/03/26 03:56:20;;;;;;;40.53;25.00;;;102.90;1894.40;;;;;;4994923;28;20046;-70
2021/03/26 03:58:54;;;;;;;34.78;20.63;;;102.70;1971.20;;;;;;4994980;28;20042;-70
2021/03/26 04:01:51;;;;;;;35.97;21.70;;;102.90;2227.20;;;;;;4994787;28;20045;-70
2021/03/26 04:04:22;;;;;;;38.75;22.85;;;;;;;;;;4994925;28;20088;-73
2021/03/26 04:06:51;;;;;;;40.13;21.33;;;;;;;;;;4994486;28;20034;-72
2021/03/26 04:09:20;;;;;;;35.67;22.30;;;103.00;2227.20;;;;;;4994557;28;20070;-72
2021/03/26 04:11:55;;;;;;;86.68;29.27;;;102.80;1868.80;;;;;;4994836;28;20033;-72
2021/03/26 04:14:33;;;;;;;70.32;37.08;;;103.00;1868.80;;;;;;4994314;28;20469;-72
2021/03/26 04:17:07;;;;;;;71.90;43.88;;;102.90;1868.80;;;;;;4994693;28;20058;-71
2021/03/26 04:19:40;;;;;;;31.73;18.98;;;102.90;1868.80;;;;;;4982842;28;20019;-73
2021/03/26 04:22:09;;;;;;;28.95;18.55;;;;;;;;;;4992957;28;20066;-71
2021/03/26 04:24:43;;;;;;;33.20;20.88;;;102.60;1894.40;;;;;;4994469;28;20022;-70
2021/03/26 04:27:14;;;;;;;33.17;23.85;;;;;;;;;;4993845;28;20125;-71
2021/03/26 04:30:01;;;;;;;32.65;21.10;;;;;;;;;;4976911;28;20038;-72
2021/03/26 04:32:27;;;;;;;34.70;19.80;;;;;;;;;;4994190;28;20085;-73
2021/03/26 04:34:54;;;;;;;38.83;22.88;;;102.40;1971.20;;;;;;4976963;28;20023;-72
2021/03/26 04:37:36;;;;;;;30.90;19.80;;;102.40;1971.20;;;;;;4994203;28;20027;-68
2021/03/26 04:40:10;;;;;;;31.15;21.30;;;;;;;;;;4994146;28;20026;-74
2021/03/26 04:43:01;;;;;;;28.95;20.30;;;102.60;2227.20;;;;;;4976736;28;20049;-75
2021/03/26 04:45:43;;;;;;;35.13;21.45;;;77.70;1996.80;;;;;;4994121;28;20110;-73
2021/03/26 04:48:30;;;;;;;34.70;22.75;;;77.60;2022.40;;;;;;4993716;28;20113;-75
2021/03/26 04:51:01;;;;;;;35.30;23.80;;;102.40;1971.20;;;;;;4984607;28;20497;-74
2021/03/26 04:53:35;;;;;;;39.25;23.70;;;77.60;2022.40;;;;;;4993879;28;20026;-74
2021/03/26 04:56:06;;;;;;;39.15;25.45;;;102.40;1971.20;;;;;;4993836;28;20042;-74
2021/03/26 04:58:36;;;;;;;37.78;23.55;;;102.60;1945.60;;;;;;4991555;28;20027;-74
2021/03/26 05:01:02;;;;;;;38.13;26.63;;;102.50;2176.00;;;;;;4993284;28;20341;-70
2021/03/26 05:03:33;;;;;;;46.65;30.00;;;102.40;1971.20;;;;;;4993362;28;20097;-71
2021/03/26 05:06:27;;;;;;;54.13;33.75;;;102.60;1945.60;;;;;;4993750;28;20065;-72
2021/03/26 05:09:00;;;;;;;61.45;36.55;;;102.60;1945.60;;;;;;4993539;28;20025;-73
2021/03/26 05:11:33;;;;;;;54.20;33.47;;;102.60;1945.60;;;;;;4993095;28;20560;-71
2021/03/26 05:14:04;;;;;;;53.97;30.67;;;102.40;2227.20;;;;;;4993232;28;20026;-72
2021/03/26 05:16:48;;;;;;;49.28;30.45;;;102.40;1996.80;;;;;;4993284;28;20046;-71
2021/03/26 05:19:17;;;;;;;51.67;32.20;;;;;;;;;;4992368;28;20027;-73
2021/03/26 05:22:12;;;;;;;50.92;32.83;;;;;;;;;;4992870;28;20473;-73
2021/03/26 05:24:41;;;;;;;59.38;33.80;;;;;;;;;;4894908;29;20043;-73
2021/03/26 05:27:09;;;;;;;64.70;41.83;;;;;;;;;;4905110;29;20051;-71
2021/03/26 05:29:35;;;;;;;67.53;40.53;;;;;;;;;;4912492;29;20440;-69
2021/03/26 05:32:27;;;;;;;68.93;41.20;;;103.00;1868.80;;;;;;4912506;29;21694;-68
2021/03/26 05:35:11;;;;;;;;;;;103.20;1843.20;;;;;;4914423;29;20163;-76
2021/03/26 05:37:51;;;;;;;70.53;41.90;;;128.00;1843.20;;;;;;4912399;29;19907;-73
2021/03/26 05:40:40;;;;;;;71.78;44.70;;;103.20;1868.80;;;;;;4912541;29;20020;-74
2021/03/26 05:43:49;;;;;;;85.28;52.08;;;103.30;1843.20;;;;;;4914082;29;20043;-71
2021/03/26 05:46:26;;;;;;;89.80;51.78;;;103.20;1868.80;;;;;;4908147;29;20059;-72
2021/03/26 05:49:18;;;;;;;101.70;58.67;;;102.90;1920.00;;;;;;4913929;29;20028;-72
2021/03/26 05:51:58;;;;;;;102.80;56.83;;;102.80;1945.60;;;;;;4898158;29;20064;-71
2021/03/26 05:54:46;;;;;;;111.68;61.58;;;103.00;1920.00;;;;;;4913874;29;20051;-72
2021/03/26 05:57:35;;;;;;;134.65;77.07;;;103.00;1894.40;;;;;;4913687;29;20044;-72
2021/03/26 06:00:25;;;;;;;119.50;68.40;;;103.20;1894.40;;;;;;4920238;28;20478;-72
2021/03/26 06:02:50;;;;;;;102.65;58.63;;;103.30;1894.40;;;;;;4992660;28;20037;-72
2021/03/26 06:05:42;;;;;;;113.43;67.75;;;103.30;1894.40;;;;;;4993101;28;20035;-73
2021/03/26 06:08:35;;;;;;;160.27;107.68;;;128.00;1894.40;;;;;;4985323;28;20366;-71
2021/03/26 06:11:24;;;;;;;119.80;63.63;;;128.40;1868.80;;;;;;4992696;28;20034;-72
2021/03/26 06:13:58;;;;;;;106.70;54.15;;;128.40;1894.40;;;;;;4992920;28;20447;-73
2021/03/26 06:16:38;;;;;;;104.65;57.17;;;128.40;1868.80;;;;;;4992517;28;20023;-72
2021/03/26 06:19:23;;;;;;;99.95;58.60;;;;;;;;;;4992440;28;20029;-72
2021/03/26 06:21:49;;;;;;;107.13;60.28;;;;;;;;;;4985407;28;20026;-73
2021/03/26 06:24:18;;;;;;;103.13;59.67;;;;;;;;;;4992573;28;20481;-73
2021/03/26 06:26:50;;;;;;;112.25;66.63;;;;;;;;;;4992025;28;20058;-72
2021/03/26 06:29:16;;;;;;;107.88;66.70;;;;;;;;;;4992416;28;20469;-73
2021/03/26 06:31:51;;;;;;;111.47;69.82;;;;;;;;;;4995348;28;20033;-73
2021/03/26 06:34:36;;;;;;;124.28;71.50;;;;;;;;;;4996363;28;20097;-73
2021/03/26 06:37:20;;;;;;;124.68;70.88;;;;;;;;;;4996113;28;20018;-73
2021/03/26 06:40:16;;;;;;;102.90;63.40;;;179.90;1587.20;;;;;;4996459;28;20053;-72
2021/03/26 06:43:19;;;;;;;105.53;68.03;;;179.90;1587.20;;;;;;4996324;28;20027;-72
2021/03/26 06:46:12;;;;;;;131.13;70.57;;;204.90;1561.60;;;;;;4986351;28;20385;-72
2021/03/26 06:49:01;;;;;;;126.90;76.30;;;205.00;1561.60;;;;;;4996069;28;20022;-72
2021/03/26 06:51:52;;;;;;;119.50;73.13;;;204.80;1561.60;;;;;;4996170;28;20031;-72
2021/03/26 06:54:45;;;;;;;128.13;82.65;;;205.10;1561.60;;;;;;4996080;28;20030;-72
2021/03/26 06:57:30;;;;;;;142.60;92.15;;;205.20;1536.00;;;;;;4996276;28;20080;-72
2021/03/26 07:00:24;;;;;;;145.27;93.53;;;205.30;1536.00;;;;;;4996305;28;20114;-72
2021/03/26 07:03:10;;;;;;;139.30;89.13;;;205.30;1536.00;;;;;;4996031;28;20030;-72
2021/03/26 07:05:57;;;;;;;132.77;85.95;;;205.70;1510.40;;;;;;4995572;28;20022;-73
2021/03/26 07:09:01;;;;;;;146.10;83.78;;;230.60;1459.20;;;;;;4995567;28;20108;-73
2021/03/26 07:11:55;;;;;;;140.63;88.68;;;230.90;1433.60;;;;;;4987234;28;20088;-72
2021/03/26 07:14:24;;;;;;;122.68;73.55;;;230.80;1433.60;;;;;;4995649;28;20026;-72
2021/03/26 07:17:14;;;;;;;131.27;75.80;;;230.90;1408.00;;;;;;4995563;28;20018;-73
2021/03/26 07:19:52;;;;;;;105.30;65.35;;;231.20;1408.00;;;;;;4984590;28;20358;-73
2021/03/26 07:22:29;;;;;;;117.03;64.57;;;256.10;1382.40;;;;;;4995354;28;20022;-73
2021/03/26 07:25:07;;;;;;;98.88;62.72;;;256.50;1331.20;;;;;;4995350;28;20027;-73
2021/03/26 07:28:00;;;;;;;102.82;61.97;;;256.90;1280.00;;;;;;4995084;28;20050;-72
2021/03/26 07:31:00;;;;;;;99.35;56.15;;;281.80;1280.00;;;;;;4995328;28;20097;-73
2021/03/26 07:33:28;;;;;;;112.38;59.97;;;282.00;1305.60;;;;;;4985727;28;20389;-72
2021/03/26 07:35:53;;;;;;;107.15;67.45;;;282.20;1280.00;;;;;;4995171;28;20109;-72
2021/03/26 07:38:35;;;;;;;100.85;57.75;;;282.50;1228.80;;;;;;4995033;28;20592;-72
2021/03/26 07:41:11;;;;;;;100.10;56.33;;;307.30;1254.40;;;;;;4995054;28;20477;-72
2021/03/26 07:44:03;;;;;;;93.57;53.72;;;307.40;1203.20;;;;;;4980929;28;20074;-72
2021/03/26 07:46:58;;;;;;;93.55;56.72;;;307.30;1203.20;;;;;;4977493;28;20034;-73
2021/03/26 07:50:02;;;;;;;87.18;55.90;;;307.60;1203.20;;;;;;4994942;28;20481;-72
2021/03/26 07:52:56;;;;;;;82.22;50.17;;;307.90;1126.40;;;;;;4983927;28;20038;-71
2021/03/26 07:55:37;;;;;;;109.55;60.35;;;307.80;1126.40;;;;;;4994678;28;20042;-73
2021/03/26 07:58:40;;;;;;;71.43;44.22;;;308.10;1126.40;;;;;;4994895;28;20477;-72
2021/03/26 08:01:15;;;;;;;108.28;59.60;;;332.80;1152.00;;;;;;4995392;28;20026;-72
2021/03/26 08:04:05;;;;;;;107.75;61.35;;;333.00;1152.00;;;;;;4994772;28;20393;-72
2021/03/26 08:06:51;;;;;;;92.88;42.90;;;333.20;1126.40;;;;;;4994744;28;20038;-71
2021/03/26 08:09:38;;;;;;;74.35;43.28;;;333.20;1126.40;;;;;;4994700;28;20014;-73
2021/03/26 08:12:28;;;;;;;76.80;40.58;;;333.40;1100.80;;;;;;4994497;28;20092;-72
2021/03/26 08:14:57;;;;;;;125.80;64.47;;;333.50;1075.20;;;;;;4994346;28;20037;-72
2021/03/26 08:17:48;;;;;;;66.55;38.10;;;333.70;1075.20;;;;;;4994389;28;20129;-73
2021/03/26 08:20:41;;;;;;;51.40;31.13;;;358.50;998.40;;;;;;4994756;28;20419;-73
2021/03/26 08:23:38;;;;;;;40.08;22.38;;;358.70;972.80;;;;;;4983968;28;20026;-73
2021/03/26 08:26:34;;;;;;;51.03;27.48;;;358.90;896.00;;;;;;4993725;28;20518;-73
2021/03/26 08:29:02;;;;;;;54.05;30.23;;;359.00;844.80;;;;;;4981002;28;20384;-73
2021/03/26 08:31:52;;;;;;;50.00;26.27;;;359.30;844.80;;;;;;4976759;28;20028;-73
2021/03/26 08:34:32;;;;;;;42.28;25.00;;;384.00;819.20;;;;;;4993783;28;20023;-73
2021/03/26 08:37:08;;;;;;;137.05;69.38;;;384.00;844.80;;;;;;4994046;28;20029;-72
2021/03/26 08:39:51;;;;;;;71.88;37.22;;;384.10;844.80;;;;;;4993952;28;20034;-72
2021/03/26 08:42:38;;;;;;;64.57;27.17;;;384.30;844.80;;;;;;4993907;28;20076;-73
2021/03/26 08:45:09;;;;;;;37.67;21.95;;;384.40;844.80;;;;;;4993740;28;20440;-73
2021/03/26 08:47:49;;;;;;;58.40;30.48;;;384.50;819.20;;;;;;4976424;28;20042;-72
2021/03/26 08:50:36;;;;;;;42.22;23.33;;;384.70;819.20;;;;;;4993577;28;20018;-72
2021/03/26 08:53:41;;;;;;;80.03;39.78;;;384.60;819.20;;;;;;4993800;28;20030;-73
2021/03/26 08:56:31;;;;;;;102.93;48.22;;;409.60;819.20;;;;;;4984653;28;20034;-73
2021/03/26 08:59:07;;;;;;;101.00;50.20;;;409.70;819.20;;;;;;4993654;28;20025;-74
2021/03/26 09:02:30;;;;;;;49.17;27.73;;;410.00;793.60;;;;;;4993599;28;20488;-72
2021/03/26 09:05:43;;;;;;;29.80;18.63;;;409.90;793.60;;;;;;4927402;29;20032;-73
2021/03/26 09:08:31;;;;;;;51.25;29.15;;;410.00;768.00;;;;;;4933665;29;20062;-72
2021/03/26 09:11:33;;;;;;;83.35;39.88;;;409.90;819.20;;;;;;4925849;29;20083;-73
2021/03/26 09:14:12;;;;;;;59.75;31.38;;;410.30;793.60;;;;;;4933376;29;20024;-73
2021/03/26 09:16:45;;;;;;;54.65;23.15;;;435.20;793.60;;;;;;4933412;29;20032;-74
2021/03/26 09:19:21;;;;;;;106.97;54.45;;;435.60;742.40;;;;;;4917057;29;20028;-74
2021/03/26 09:22:07;;;;;;;79.72;39.97;;;435.80;742.40;;;;;;4933222;29;20028;-73
2021/03/26 09:25:03;;;;;;;170.25;78.43;;;435.90;742.40;;;;;;4933362;29;20028;-73
2021/03/26 09:27:48;;;;;;;60.75;37.88;;;436.10;742.40;;;;;;4946288;29;20051;-73
2021/03/26 09:30:15;;;;;;;39.45;21.60;;;460.80;742.40;;;;;;4952330;28;20102;-73
2021/03/26 09:32:57;;;;;;;34.63;19.45;;;460.80;742.40;;;;;;4936044;29;20031;-72
2021/03/26 09:35:38;;;;;;;50.92;28.55;;;461.10;716.80;;;;;;4959968;28;20137;-72
2021/03/26 09:38:06;;;;;;;40.28;21.67;;;461.70;691.20;;;;;;4979610;28;20473;-73
2021/03/26 09:41:07;;;;;;;32.83;21.45;;;589.40;537.60;;;;;;4993004;28;20033;-73
2021/03/26 09:43:48;;;;;;;40.00;25.38;;;691.60;435.20;;;;;;4992459;28;20061;-72
2021/03/26 09:46:43;;;;;;;;;;;743.30;358.40;;;;;;4993090;28;20042;-74
2021/03/26 09:49:27;;;;;;;25.33;19.02;;;;;;;;;;4923065;29;19953;-72
2021/03/26 09:52:07;;;;;;;63.40;39.95;;;768.50;358.40;;;;;;4932904;29;20525;-73
2021/03/26 09:54:40;;;;;;;80.32;45.45;;;768.90;332.80;;;;;;4932940;29;20593;-72
2021/03/26 09:57:27;;;;;;;114.50;69.50;;;794.00;332.80;;;;;;4932589;29;20036;-72
2021/03/26 10:00:12;;;;;;;117.47;63.90;;;;;;;;;;4932792;29;20048;-73
2021/03/26 10:02:53;;;;;;;125.78;79.22;;;845.20;281.60;;;;;;4932727;29;20130;-73
2021/03/26 10:05:29;;;;;;;78.18;46.33;;;845.60;281.60;;;;;;4932971;29;20047;-74
2021/03/26 10:08:56;;;;;;;84.80;51.25;;;871.00;281.60;;;;;;4936813;29;20368;-74
2021/03/26 10:11:21;;;;;;;83.70;49.28;;;870.90;281.60;;;;;;4936533;29;20387;-74
2021/03/26 10:13:50;;;;;;;27.13;21.65;;;870.90;256.00;;;;;;4936342;29;20082;-73
2021/03/26 10:16:24;;;;;;;41.25;24.95;;;819.30;332.80;;;;;;4936560;29;20484;-74
2021/03/26 10:18:59;;;;;;;74.82;39.92;;;819.60;332.80;;;;;;4936259;29;20040;-74
2021/03/26 10:21:28;;;;;;;125.32;71.95;;;819.20;307.20;;;;;;4936689;29;20036;-74
2021/03/26 10:24:11;;;;;;;121.05;66.43;;;820.10;307.20;;;;;;4936373;29;20479;-74
2021/03/26 10:26:50;;;;;;;141.25;87.43;;;;;;;;;;4984542;28;20054;-74
2021/03/26 10:29:25;;;;;;;30.25;22.80;;;;;;;;;;4996480;28;20022;-74
2021/03/26 10:31:52;;;;;;;53.85;38.47;;;845.70;332.80;;;;;;4978988;28;20505;-74
2021/03/26 10:34:30;;;;;;;22.38;18.88;;;870.50;307.20;;;;;;4996577;28;20482;-74
2021/03/26 10:36:59;;;;;;;19.50;15.57;;;;;;;;;;4996354;28;20030;-74
2021/03/26 10:39:47;;;;;;;25.88;17.73;;;870.90;256.00;;;;;;4996536;28;20029;-74
2021/03/26 10:42:25;;;;;;;34.03;17.75;;;;;;;;;;4996329;28;20382;-74
2021/03/26 10:45:03;;;;;;;32.53;23.75;;;896.20;256.00;;;;;;4996060;28;20030;-74
2021/03/26 10:47:42;;;;;;;29.45;20.35;;;896.10;256.00;;;;;;4996262;28;20488;-75
2021/03/26 10:50:11;;;;;;;22.80;19.98;;;896.20;256.00;;;;;;4996015;28;20033;-75
2021/03/26 10:52:43;;;;;;;20.85;17.25;;;896.10;256.00;;;;;;4995994;28;20104;-74
2021/03/26 10:55:41;;;;;;;37.05;29.48;;;896.50;256.00;;;;;;5026730;23;20050;-70
2021/03/26 10:58:13;;;;;;;55.00;39.42;;;;;;;;;;5015443;28;20484;-74
2021/03/26 11:00:57;;;;;;;54.33;33.47;;;922.30;281.60;;;;;;5015633;28;20033;-74
2021/03/26 11:03:38;;;;;;;38.15;23.95;;;922.30;281.60;;;;;;5015640;28;20104;-74
2021/03/26 11:06:11;;;;;;;32.92;20.30;;;;;;;;;;5015462;28;20025;-74
2021/03/26 11:08:36;;;;;;;32.72;27.70;;;947.50;281.60;;;;;;5015396;28;20022;-73
2021/03/26 11:11:16;;;;;;;49.95;37.15;;;947.30;281.60;;;;;;5014186;28;20029;-73
2021/03/26 11:14:16;;;;;;;35.42;24.05;;;947.50;281.60;;;;;;5015379;28;20022;-74
2021/03/26 11:16:46;;;;;;;36.70;29.47;;;;;;;;;;5014352;28;20060;-73
2021/03/26 11:19:12;;;;;;;28.75;21.00;;;;;;;;;;5014883;28;20511;-74
2021/03/26 11:21:48;;;;;;;21.13;16.75;;;947.80;281.60;;;;;;5015225;28;20035;-71
2021/03/26 11:24:15;;;;;;;34.40;21.55;;;947.60;281.60;;;;;;5015372;28;20049;-75
2021/03/26 11:26:53;;;;;;;35.50;18.88;;;947.60;281.60;;;;;;5013720;28;20428;-74
2021/03/26 11:29:36;;;;;;;28.67;22.63;;;947.60;281.60;;;;;;5014854;28;20416;-74
2021/03/26 11:32:20;;;;;;;54.72;45.47;;;;;;;;;;5014945;28;20030;-74
2021/03/26 11:35:05;;;;;;;52.55;29.52;;;973.20;307.20;;;;;;5002086;28;20608;-70
2021/03/26 11:37:48;;;;;;;40.75;32.72;;;973.20;307.20;;;;;;5014671;28;20080;-70
2021/03/26 11:40:31;;;;;;;30.35;26.67;;;972.90;307.20;;;;;;5013467;28;20021;-71
2021/03/26 11:43:03;;;;;;;25.80;17.90;;;947.70;281.60;;;;;;5014667;28;20380;-74
2021/03/26 11:45:56;;;;;;;30.70;21.00;;;947.50;281.60;;;;;;5014977;28;20030;-75
2021/03/26 11:48:37;;;;;;;23.70;17.25;;;947.60;281.60;;;;;;5014522;28;20021;-74
2021/03/26 11:51:25;;;;;;;27.10;20.17;;;922.50;281.60;;;;;;5014352;28;20056;-72
2021/03/26 11:54:16;;;;;;;34.78;29.13;;;947.20;281.60;;;;;;5000998;28;20489;-69
2021/03/26 11:56:49;;;;;;;40.50;19.15;;;921.70;281.60;;;;;;5012763;28;20546;-73
2021/03/26 11:59:46;;;;;;;46.08;34.08;;;922.20;281.60;;;;;;5029340;28;20388;-73
2021/03/26 12:02:30;;;;;;;50.47;42.22;;;922.10;281.60;;;;;;5012677;28;20385;-72
2021/03/26 12:05:20;;;;;;;55.50;37.00;;;922.00;281.60;;;;;;5014098;28;20124;-72
2021/03/26 12:07:58;;;;;;;34.38;17.77;;;922.00;281.60;;;;;;5003356;28;20029;-75
2021/03/26 12:10:54;;;;;;;35.03;21.63;;;922.50;281.60;;;;;;5014151;28;20037;-75
2021/03/26 12:13:35;;;;;;;25.33;19.42;;;896.80;256.00;;;;;;5013908;28;20040;-75
2021/03/26 12:16:18;;;;;;;25.83;20.30;;;871.30;256.00;;;;;;5001019;28;20053;-76
2021/03/26 12:19:25;;;;;;;32.92;24.23;;;870.50;281.60;;;;;;5014402;28;20022;-75
2021/03/26 12:22:16;;;;;;;31.42;23.15;;;845.50;307.20;;;;;;4953009;28;20039;-75
2021/03/26 12:25:09;;;;;;;32.00;23.35;;;845.10;307.20;;;;;;4945878;28;20114;-78
2021/03/26 12:27:45;;;;;;;25.55;18.58;;;844.80;358.40;;;;;;4953161;28;20062;-73
2021/03/26 12:30:13;;;;;;;25.98;20.60;;;844.80;358.40;;;;;;4953175;28;20037;-77
2021/03/26 12:32:57;;;;;;;42.35;20.05;;;819.40;358.40;;;;;;4953207;28;20027;-77
2021/03/26 12:35:31;;;;;;;24.27;19.05;;;;;;;;;;4953146;29;20494;-76
2021/03/26 12:38:15;;;;;;;29.65;22.92;;;;;;;;;;4953305;29;20051;-76
2021/03/26 12:40:47;;;;;;;22.55;16.48;;;;;;;;;;4953303;29;20035;-75
2021/03/26 12:43:37;;;;;;;24.88;17.58;;;717.10;384.00;;;;;;4953293;28;20043;-76
2021/03/26 12:46:40;;;;;;;28.52;18.65;;;691.80;409.60;;;;;;4944656;29;20494;-71
2021/03/26 12:49:07;;;;;;;22.55;18.25;;;666.40;435.20;;;;;;4952909;28;20027;-76
2021/03/26 12:51:38;;;;;;;34.10;20.52;;;666.10;435.20;;;;;;4952762;29;20036;-73
2021/03/26 12:54:19;;;;;;;22.52;16.17;;;665.80;460.80;;;;;;4952862;28;20054;-76
2021/03/26 12:57:25;;;;;;;30.15;22.35;;;640.70;435.20;;;;;;4966254;28;20124;-76
2021/03/26 13:00:07;;;;;;;37.10;19.63;;;640.20;460.80;;;;;;5013626;28;20026;-76
2021/03/26 13:02:40;;;;;;;31.55;18.90;;;615.20;486.40;;;;;;5001911;28;20025;-76
2021/03/26 13:05:12;;;;;;;36.60;18.83;;;640.00;486.40;;;;;;5028335;28;20041;-77
2021/03/26 13:07:58;;;;;;;30.45;18.35;;;665.60;486.40;;;;;;5013456;28;20026;-77
2021/03/26 13:10:48;;;;;;;26.17;16.27;;;716.80;460.80;;;;;;5012727;28;20388;-73
2021/03/26 13:13:14;;;;;;;32.28;18.77;;;;;;;;;;5013369;28;20080;-76
2021/03/26 13:15:44;;;;;;;26.73;18.13;;;768.90;332.80;;;;;;5011713;28;20072;-77
2021/03/26 13:18:14;;;;;;;41.97;19.10;;;768.80;332.80;;;;;;5013057;28;20105;-77
2021/03/26 13:21:12;;;;;;;32.67;19.67;;;794.20;358.40;;;;;;5011371;28;20112;-75